Messwerte Coimbatore

Temperatur

Temperatur
°C
1593743400 8.00 8.00 24
1593747000 9.00 9.00 26
1593750600 10.00 10.00 29
1593754200 11.00 11.00 29
1593757800 12.00 12.00 30
1593761400 13.00 13.00 29
1593765000 14.00 14.00 30
1593768600 15.00 15.00 30
1593772200 16.00 16.00 27
1593775800 17.00 17.00 25
1593779400 18.00 18.00 25
1593783000 19.00 19.00 23
1593786600 20.00 20.00 23
1593790200 21.00 21.00 23
1593793800 22.00 22.00 23
1593797400 23.00 23.00 23
1593801000 0.00 0.00 23
1593804600 1.00 1.00
1593808200 2.00 2.00
1593811800 3.00 3.00 23
1593815400 4.00 4.00
1593819000 5.00 5.00
1593822600 6.00 6.00 23
1593826200 7.00 7.00 23

Aktuellste Messwerte

Wettercharakter
Wetter: Nebel
Temperatur
24 °C
Feuchtigkeit
90 %
Wind
15 km/hWindrichtung: Süd
Luftdruck
1008 hPa
Messzeit: 4. Juli 2020, 7.30Datenquelle: METAR

Weitere Messstationen in der Nähe

Messstation Temperatur Entfernung
Tiruchchirapalli 28 °C 184 km
Bengaluru 23 °C 222 km
Thoothukudi 29 °C 282 km
Thiruvananthapuram 27 °C 285 km
Mangaluru 24 °C 316 km
Madras 28 °C 405 km

Wind

Windrichtung Böen Mittelwind
° km/h km/h
1593743400 8.00 7.00 - 8.00 200° 15
1593747000 9.00 8.00 - 9.00 190° 15
1593750600 10.00 9.00 - 10.00 200° 15
1593754200 11.00 10.00 - 11.00 180° 20
1593757800 12.00 11.00 - 12.00 200° 40 25
1593761400 13.00 12.00 - 13.00 200° 40 20
1593765000 14.00 13.00 - 14.00 200° 25
1593768600 15.00 14.00 - 15.00 200° 20
1593772200 16.00 15.00 - 16.00 200° 25
1593775800 17.00 16.00 - 17.00 220° 25
1593779400 18.00 17.00 - 18.00 200° 20
1593783000 19.00 18.00 - 19.00 200° 25
1593786600 20.00 19.00 - 20.00 220° 20
1593790200 21.00 20.00 - 21.00 180° 5
1593793800 22.00 21.00 - 22.00 210° 10
1593797400 23.00 22.00 - 23.00 200° 5
1593801000 0.00 23.00 - 0.00 200° 10
1593804600 1.00 0.00 - 1.00
1593808200 2.00 1.00 - 2.00
1593811800 3.00 2.00 - 3.00 200° 15
1593815400 4.00 3.00 - 4.00
1593819000 5.00 4.00 - 5.00
1593822600 6.00 5.00 - 6.00 200° 15
1593826200 7.00 6.00 - 7.00 200° 15

Ihre Wetterstation

Fehlt Ihre Wetterstation auf unserem Portal?

Schreiben Sie an network@meteonews.ch

Klima

Wann ist es am wärmsten? Wann regnet es am wenigsten? Unsere Klimadaten geben Auskunft.